Time;durP1;ratioP1;P1;durP2;ratioP2;P2;SDS_P1;SDS_P2;PMS_P1;PMS_P2;Temp;Humidity;BMP_temperature;BMP_pressure;BME280_temperature;BME280_humidity;BME280_pressure;Samples;Min_cycle;Max_cycle;Signal;HPM_P1;HPM_P2
2022/10/31 00:02:13;;;;;;;;;;;11.80;99.90;;;;;;4975794;28;19918;-76
2022/10/31 00:04:39;;;;;;;;;;;11.80;99.90;;;;;;4977446;28;19953;-75
2022/10/31 00:07:08;;;;;;;;;;;11.80;99.90;;;;;;4955613;28;19973;-75
2022/10/31 00:09:35;;;;;;;;;;;11.70;99.90;;;;;;4959909;28;20123;-75
2022/10/31 00:12:02;;;;;;;;;;;11.60;99.90;;;;;;4971890;28;19910;-75
2022/10/31 00:14:28;;;;;;;;;;;11.50;99.90;;;;;;4976897;28;20275;-75
2022/10/31 00:16:55;;;;;;;;;;;11.50;99.90;;;;;;4978722;28;19910;-75
2022/10/31 00:19:24;;;;;;;;;;;11.50;99.90;;;;;;4974669;28;19997;-75
2022/10/31 00:21:56;;;;;;;;;;;11.50;99.90;;;;;;4979496;28;19919;-75
2022/10/31 00:24:22;;;;;;;;;;;11.50;99.90;;;;;;4972388;28;19993;-75
2022/10/31 00:26:48;;;;;;;;;;;11.50;99.90;;;;;;4979551;28;19921;-76
2022/10/31 00:29:15;;;;;;;;;;;11.50;99.90;;;;;;4983939;28;19918;-75
2022/10/31 00:31:44;;;;;;;;;;;11.60;99.90;;;;;;4962653;28;19918;-75
2022/10/31 00:34:14;;;;;;;;;;;11.60;99.90;;;;;;4971409;28;20004;-75
2022/10/31 00:36:41;;;;;;;;;;;11.60;99.90;;;;;;4979600;28;19949;-75
2022/10/31 00:39:07;;;;;;;;;;;11.60;99.90;;;;;;4977715;28;21895;-75
2022/10/31 00:41:33;;;;;;;;;;;11.60;99.90;;;;;;4978836;28;19972;-76
2022/10/31 00:44:08;;;;;;;;;;;11.60;99.90;;;;;;4979834;28;20374;-75
2022/10/31 00:46:41;;;;;;;;;;;11.70;99.90;;;;;;4975336;28;19921;-75
2022/10/31 00:49:07;;;;;;;;;;;11.70;99.90;;;;;;4968437;28;20023;-76
2022/10/31 00:51:48;;;;;;;;;;;11.60;99.90;;;;;;4978289;28;19965;-75
2022/10/31 00:54:17;;;;;;;;;;;11.70;99.90;;;;;;4978309;28;19918;-75
2022/10/31 00:56:50;;;;;;;;;;;11.60;99.90;;;;;;4986344;28;19913;-75
2022/10/31 00:59:17;;;;;;;;;;;11.60;99.90;;;;;;4983848;28;19914;-75
2022/10/31 01:01:42;;;;;;;;;;;11.60;99.90;;;;;;4976608;28;19925;-76
2022/10/31 01:04:10;;;;;;;;;;;11.60;99.90;;;;;;4978129;28;19914;-75
2022/10/31 01:06:36;;;;;;;;;;;11.60;99.90;;;;;;4979459;28;19924;-75
2022/10/31 01:09:04;;;;;;;;;;;11.50;99.90;;;;;;4974889;28;20008;-75
2022/10/31 01:11:30;;;;;;;;;;;11.40;99.90;;;;;;4975964;28;20067;-76
2022/10/31 01:13:56;;;;;;;;;;;11.30;99.90;;;;;;4989064;28;20004;-75
2022/10/31 01:16:24;;;;;;;;;;;11.40;99.90;;;;;;4977781;28;19914;-75
2022/10/31 01:18:51;;;;;;;;;;;11.40;99.90;;;;;;4973026;28;19909;-75
2022/10/31 01:21:23;;;;;;;;;;;11.50;99.90;;;;;;4975576;28;20005;-75
2022/10/31 01:23:49;;;;;;;;;;;11.50;99.90;;;;;;4972052;28;20401;-75
2022/10/31 01:26:17;;;;;;;;;;;11.60;99.90;;;;;;4978778;28;19961;-75
2022/10/31 01:28:44;;;;;;;;;;;11.70;99.90;;;;;;4979705;28;19910;-75
2022/10/31 01:31:11;;;;;;;;;;;11.70;99.90;;;;;;4978458;28;19914;-75
2022/10/31 01:33:42;;;;;;;;;;;11.80;99.90;;;;;;4978872;28;19917;-75
2022/10/31 01:36:11;;;;;;;;;;;11.80;99.90;;;;;;4973992;28;20361;-76
2022/10/31 01:38:40;;;;;;;;;;;11.90;99.90;;;;;;4978487;28;19933;-76
2022/10/31 01:41:07;;;;;;;;;;;11.90;99.90;;;;;;4977831;28;20017;-75
2022/10/31 01:43:43;;;;;;;;;;;11.80;99.90;;;;;;4985447;28;19917;-76
2022/10/31 01:46:10;;;;;;;;;;;11.80;99.90;;;;;;4974535;28;20704;-76
2022/10/31 01:48:45;;;;;;;;;;;11.90;99.90;;;;;;4977926;28;19996;-75
2022/10/31 01:51:14;;;;;;;;;;;11.90;99.90;;;;;;4977678;28;19933;-75
2022/10/31 01:53:40;;;;;;;;;;;11.90;99.90;;;;;;4977449;28;19930;-75
2022/10/31 01:56:13;;;;;;;;;;;11.90;99.90;;;;;;4974160;28;19957;-75
2022/10/31 01:58:43;;;;;;;;;;;11.90;99.90;;;;;;4978510;28;19933;-75
2022/10/31 02:01:13;;;;;;;;;;;11.80;99.90;;;;;;4971564;28;19945;-76
2022/10/31 02:03:41;;;;;;;;;;;11.70;99.90;;;;;;4982802;28;19917;-76
2022/10/31 02:06:16;;;;;;;;;;;11.70;99.90;;;;;;4976550;28;19930;-75
2022/10/31 02:08:42;;;;;;;;;;;11.80;99.90;;;;;;4974345;28;20359;-75
2022/10/31 02:11:10;;;;;;;;;;;11.70;99.90;;;;;;4960069;28;19925;-75
2022/10/31 02:13:40;;;;;;;;;;;11.80;99.90;;;;;;4961569;28;19913;-76
2022/10/31 02:16:14;;;;;;;;;;;11.60;99.90;;;;;;4976573;28;19913;-75
2022/10/31 02:18:40;;;;;;;;;;;11.50;99.90;;;;;;4972649;28;19926;-76
2022/10/31 02:21:09;;;;;;;;;;;11.40;99.90;;;;;;4977192;28;19918;-76
2022/10/31 02:23:53;;;;;;;;;;;11.50;99.90;;;;;;4973505;28;19909;-75
2022/10/31 02:26:36;;;;;;;;;;;11.50;99.90;;;;;;4978060;28;19920;-75
2022/10/31 02:29:20;;;;;;;;;;;11.50;99.90;;;;;;4955930;28;19936;-75
2022/10/31 02:32:02;;;;;;;;;;;11.50;99.90;;;;;;4977790;28;19912;-76
2022/10/31 02:34:48;;;;;;;;;;;11.50;99.90;;;;;;4981844;28;19910;-75
2022/10/31 02:37:19;;;;;;;;;;;11.50;99.90;;;;;;4979926;28;20379;-75
2022/10/31 02:39:58;;;;;;;;;;;11.50;99.90;;;;;;4979350;28;19922;-75
2022/10/31 02:42:37;;;;;;;;;;;11.60;99.90;;;;;;4975192;28;19914;-75
2022/10/31 02:45:25;;;;;;;;;;;11.60;99.90;;;;;;4976958;28;20003;-75
2022/10/31 02:47:53;;;;;;;;;;;11.60;99.90;;;;;;4977740;28;19956;-75
2022/10/31 02:50:41;;;;;;;;;;;11.60;99.90;;;;;;4975848;28;20390;-75
2022/10/31 02:53:14;;;;;;;;;;;11.70;99.90;;;;;;4971606;28;19918;-76
2022/10/31 02:55:59;;;;;;;;;;;11.70;99.90;;;;;;4977917;28;19972;-75
2022/10/31 02:58:26;;;;;;;;;;;11.70;99.90;;;;;;4976916;28;19910;-75
2022/10/31 03:00:56;;;;;;;;;;;11.80;99.90;;;;;;4986998;28;19914;-76
2022/10/31 03:03:50;;;;;;;;;;;11.70;99.90;;;;;;4977502;28;19976;-75
2022/10/31 03:06:34;;;;;;;;;;;11.70;99.90;;;;;;4970490;28;19918;-76
2022/10/31 03:09:04;;;;;;;;;;;11.60;99.90;;;;;;4971131;28;20589;-75
2022/10/31 03:11:32;;;;;;;;;;;11.60;99.90;;;;;;4976397;28;19997;-75
2022/10/31 03:14:20;;;;;;;;;;;11.50;99.90;;;;;;4968293;28;19914;-75
2022/10/31 03:16:50;;;;;;;;;;;11.50;99.90;;;;;;4974676;28;19918;-75
2022/10/31 03:19:19;;;;;;;;;;;11.40;99.90;;;;;;4975311;28;20334;-75
2022/10/31 03:21:47;;;;;;;;;;;11.40;99.90;;;;;;4976631;28;19914;-76
2022/10/31 03:24:24;;;;;;;;;;;11.40;99.90;;;;;;4970861;28;19921;-75
2022/10/31 03:26:53;;;;;;;;;;;11.40;99.90;;;;;;4974903;28;19910;-75
2022/10/31 03:29:21;;;;;;;;;;;11.30;99.90;;;;;;4973291;28;19909;-75
2022/10/31 03:31:50;;;;;;;;;;;11.30;99.90;;;;;;4980473;28;19921;-75
2022/10/31 03:34:17;;;;;;;;;;;11.40;99.90;;;;;;4984633;28;19914;-75
2022/10/31 03:36:45;;;;;;;;;;;11.40;99.90;;;;;;4961095;28;20446;-75
2022/10/31 03:39:13;;;;;;;;;;;11.40;99.90;;;;;;4976941;28;19965;-75
2022/10/31 03:41:51;;;;;;;;;;;11.40;99.90;;;;;;4974178;28;19921;-74
2022/10/31 03:44:20;;;;;;;;;;;11.40;99.90;;;;;;4974715;28;19910;-76
2022/10/31 03:46:49;;;;;;;;;;;11.50;99.90;;;;;;4975537;28;20482;-76
2022/10/31 03:49:16;;;;;;;;;;;11.50;99.90;;;;;;4972913;28;19914;-75
2022/10/31 03:51:43;;;;;;;;;;;11.60;99.90;;;;;;4956461;28;20020;-76
2022/10/31 03:54:31;;;;;;;;;;;11.60;99.90;;;;;;4979825;28;20826;-75
2022/10/31 03:57:06;;;;;;;;;;;11.50;99.90;;;;;;4962905;28;20282;-75
2022/10/31 03:59:34;;;;;;;;;;;11.60;99.90;;;;;;4980880;28;19968;-75
2022/10/31 04:02:07;;;;;;;;;;;11.60;99.90;;;;;;4979295;28;19949;-75
2022/10/31 04:04:34;;;;;;;;;;;11.60;99.90;;;;;;4979120;28;20819;-75
2022/10/31 04:07:01;;;;;;;;;;;11.50;99.90;;;;;;4983714;28;19913;-75
2022/10/31 04:09:29;;;;;;;;;;;11.50;99.90;;;;;;4976119;28;19973;-76
2022/10/31 04:11:56;;;;;;;;;;;11.50;99.90;;;;;;4981476;28;20375;-75
2022/10/31 04:14:29;;;;;;;;;;;11.50;99.90;;;;;;4980474;28;19910;-74
2022/10/31 04:16:55;;;;;;;;;;;11.50;99.90;;;;;;4980209;28;19910;-75
2022/10/31 04:19:24;;;;;;;;;;;11.60;99.90;;;;;;4979354;28;19910;-75
2022/10/31 04:21:52;;;;;;;;;;;11.50;99.90;;;;;;4979558;28;19914;-75
2022/10/31 04:24:18;;;;;;;;;;;11.50;99.90;;;;;;4974848;28;19916;-75
2022/10/31 04:26:47;;;;;;;;;;;11.50;99.90;;;;;;4980727;28;19914;-75
2022/10/31 04:29:14;;;;;;;;;;;11.50;99.90;;;;;;4974594;28;19914;-75
2022/10/31 04:31:42;;;;;;;;;;;11.50;99.90;;;;;;4979156;28;19925;-75
2022/10/31 04:34:07;;;;;;;;;;;11.40;99.90;;;;;;4973842;28;19960;-75
2022/10/31 04:36:33;;;;;;;;;;;11.40;99.90;;;;;;4976365;28;19945;-75
2022/10/31 04:39:07;;;;;;;;;;;11.40;99.90;;;;;;4960093;28;19922;-75
2022/10/31 04:41:36;;;;;;;;;;;11.40;99.90;;;;;;4971371;28;20406;-75
2022/10/31 04:44:04;;;;;;;;;;;11.40;99.90;;;;;;4978068;28;19914;-75
2022/10/31 04:46:29;;;;;;;;;;;11.40;99.90;;;;;;4977700;28;19997;-75
2022/10/31 04:48:57;;;;;;;;;;;11.40;99.90;;;;;;4977845;28;19989;-75
2022/10/31 04:51:26;;;;;;;;;;;11.30;99.90;;;;;;4960651;28;20005;-74
2022/10/31 04:53:54;;;;;;;;;;;11.40;99.90;;;;;;4973645;28;19948;-75
2022/10/31 04:56:23;;;;;;;;;;;11.40;99.90;;;;;;4973297;28;20371;-75
2022/10/31 04:58:48;;;;;;;;;;;11.40;99.90;;;;;;4973568;28;19909;-74
2022/10/31 05:01:15;;;;;;;;;;;11.40;99.90;;;;;;4972584;28;20371;-75
2022/10/31 05:03:41;;;;;;;;;;;11.50;99.90;;;;;;4975646;28;20663;-74
2022/10/31 05:06:10;;;;;;;;;;;11.40;99.90;;;;;;4964730;28;19925;-75
2022/10/31 05:08:35;;;;;;;;;;;11.40;99.90;;;;;;4969849;28;19909;-74
2022/10/31 05:11:02;;;;;;;;;;;11.40;99.90;;;;;;4968340;28;19917;-75
2022/10/31 05:13:28;;;;;;;;;;;11.60;99.90;;;;;;4975465;28;19914;-75
2022/10/31 05:15:54;;;;;;;;;;;11.40;99.90;;;;;;4966636;28;19909;-74
2022/10/31 05:18:22;;;;;;;;;;;11.40;99.90;;;;;;4961239;28;20060;-74
2022/10/31 05:20:50;;;;;;;;;;;11.40;99.90;;;;;;4975862;28;20556;-75
2022/10/31 05:23:16;;;;;;;;;;;11.40;99.90;;;;;;4983399;28;19925;-74
2022/10/31 05:25:50;;;;;;;;;;;11.40;99.90;;;;;;4979005;28;19910;-75
2022/10/31 05:28:16;;;;;;;;;;;11.40;99.90;;;;;;4980320;28;19913;-75
2022/10/31 05:30:47;;;;;;;;;;;11.50;99.90;;;;;;4973790;28;19967;-74
2022/10/31 05:33:13;;;;;;;;;;;11.40;99.90;;;;;;4979618;28;19910;-74
2022/10/31 05:35:38;;;;;;;;;;;11.40;99.90;;;;;;4981394;28;19925;-74
2022/10/31 05:38:04;;;;;;;;;;;11.40;99.90;;;;;;4971936;28;19929;-75
2022/10/31 05:40:31;;;;;;;;;;;11.40;99.90;;;;;;4976413;28;19925;-74
2022/10/31 05:42:58;;;;;;;;;;;11.40;99.90;;;;;;4977407;28;19955;-74
2022/10/31 05:45:24;;;;;;;;;;;11.40;99.90;;;;;;4975965;28;19917;-75
2022/10/31 05:47:54;;;;;;;;;;;11.40;99.90;;;;;;4979603;28;20506;-74
2022/10/31 05:50:19;;;;;;;;;;;11.40;99.90;;;;;;4973032;28;20588;-74
2022/10/31 05:52:45;;;;;;;;;;;11.40;99.90;;;;;;4982645;28;19992;-74
2022/10/31 05:55:13;;;;;;;;;;;11.40;99.90;;;;;;4970794;28;19961;-75
2022/10/31 05:57:39;;;;;;;;;;;11.40;99.90;;;;;;4978665;28;19957;-74
2022/10/31 06:00:07;;;;;;;;;;;11.40;99.90;;;;;;4974256;28;19914;-75
2022/10/31 06:02:45;;;;;;;;;;;11.40;99.90;;;;;;4978255;28;19925;-74
2022/10/31 06:05:17;;;;;;;;;;;11.40;99.90;;;;;;4975426;28;19910;-75
2022/10/31 06:07:43;;;;;;;;;;;11.40;99.90;;;;;;4979315;28;20295;-74
2022/10/31 06:10:13;;;;;;;;;;;11.50;99.90;;;;;;4975339;28;19918;-74
2022/10/31 06:12:44;;;;;;;;;;;11.50;99.90;;;;;;4977863;28;19976;-77
2022/10/31 06:15:09;;;;;;;;;;;11.50;99.90;;;;;;4976923;28;19918;-77
2022/10/31 06:17:36;;;;;;;;;;;11.60;99.90;;;;;;4972235;28;19988;-77
2022/10/31 06:20:03;;;;;;;;;;;11.60;99.90;;;;;;4978783;28;19909;-78
2022/10/31 06:22:30;;;;;;;;;;;11.60;99.90;;;;;;4981436;28;20389;-78
2022/10/31 06:24:57;;;;;;;;;;;11.70;99.90;;;;;;4975432;28;20000;-75
2022/10/31 06:27:24;;;;;;;;;;;11.70;99.90;;;;;;4976253;28;19972;-75
2022/10/31 06:29:50;;;;;;;;;;;11.80;99.90;;;;;;4977754;28;19910;-74
2022/10/31 06:32:16;;;;;;;;;;;11.80;99.90;;;;;;4980497;28;19920;-74
2022/10/31 06:34:43;;;;;;;;;;;11.90;99.90;;;;;;4961154;28;19945;-74
2022/10/31 06:37:10;;;;;;;;;;;11.90;99.90;;;;;;4975515;28;20299;-74
2022/10/31 06:39:36;;;;;;;;;;;12.00;99.90;;;;;;4975440;28;19922;-75
2022/10/31 06:42:04;;;;;;;;;;;12.00;99.90;;;;;;4976522;28;19960;-74
2022/10/31 06:44:31;;;;;;;;;;;12.00;99.90;;;;;;4976695;28;21353;-74
2022/10/31 06:46:57;;;;;;;;;;;12.00;99.90;;;;;;4976895;28;19965;-75
2022/10/31 06:49:22;;;;;;;;;;;12.00;99.90;;;;;;4973417;28;20608;-75
2022/10/31 06:51:59;;;;;;;;;;;12.00;99.90;;;;;;4981442;28;19914;-75
2022/10/31 06:54:27;;;;;;;;;;;12.00;99.90;;;;;;4983550;28;20600;-74
2022/10/31 06:56:52;;;;;;;;;;;12.00;99.90;;;;;;4977381;28;19948;-74
2022/10/31 06:59:19;;;;;;;;;;;12.00;99.90;;;;;;4977807;28;20015;-75
2022/10/31 07:01:45;;;;;;;;;;;12.10;99.90;;;;;;4975544;28;19922;-75
2022/10/31 07:04:19;;;;;;;;;;;12.00;99.90;;;;;;4972867;28;20037;-74
2022/10/31 07:06:47;;;;;;;;;;;12.10;99.90;;;;;;4977766;28;19997;-74
2022/10/31 07:09:12;;;;;;;;;;;12.10;99.90;;;;;;4975897;28;19925;-74
2022/10/31 07:11:39;;;;;;;;;;;12.10;99.90;;;;;;4975870;28;19918;-75
2022/10/31 07:14:05;;;;;;;;;;;12.10;99.90;;;;;;4975512;28;19910;-76
2022/10/31 07:16:31;;;;;;;;;;;12.10;99.90;;;;;;4975847;28;19917;-74
2022/10/31 07:18:56;;;;;;;;;;;12.20;99.90;;;;;;4976284;28;19918;-74
2022/10/31 07:21:27;;;;;;;;;;;12.20;99.90;;;;;;4976309;28;19960;-75
2022/10/31 07:23:53;;;;;;;;;;;12.10;99.90;;;;;;4974636;28;19910;-74
2022/10/31 07:26:21;;;;;;;;;;;12.10;99.90;;;;;;4980299;28;19981;-74
2022/10/31 07:28:48;;;;;;;;;;;12.10;99.90;;;;;;4977530;28;19921;-75
2022/10/31 07:31:16;;;;;;;;;;;12.10;99.90;;;;;;4977551;28;19937;-75
2022/10/31 07:33:41;;;;;;;;;;;12.10;99.90;;;;;;4979639;28;19913;-75
2022/10/31 07:36:15;;;;;;;;;;;12.10;99.90;;;;;;4982909;28;19968;-75
2022/10/31 07:38:41;;;;;;;;;;;12.20;99.90;;;;;;4981262;28;19922;-75
2022/10/31 07:41:07;;;;;;;;;;;12.20;99.90;;;;;;4978308;28;19922;-75
2022/10/31 07:43:32;;;;;;;;;;;12.20;99.90;;;;;;4973629;28;19949;-75
2022/10/31 07:46:04;;;;;;;;;;;12.30;99.90;;;;;;4980621;28;19917;-75
2022/10/31 07:48:29;;;;;;;;;;;12.40;99.90;;;;;;4961913;28;19957;-74
2022/10/31 07:50:56;;;;;;;;;;;12.40;99.90;;;;;;4978083;28;19941;-74
2022/10/31 07:53:21;;;;;;;;;;;12.30;99.90;;;;;;4980599;28;19920;-74
2022/10/31 07:55:52;;;;;;;;;;;12.40;99.90;;;;;;4980662;28;19918;-75
2022/10/31 07:58:19;;;;;;;;;;;12.50;99.90;;;;;;4974004;28;19918;-75
2022/10/31 08:00:48;;;;;;;;;;;12.50;99.90;;;;;;4977956;28;20000;-75
2022/10/31 08:03:18;;;;;;;;;;;12.50;99.90;;;;;;4978793;28;19968;-75
2022/10/31 08:05:50;;;;;;;;;;;12.40;99.90;;;;;;4978321;28;19917;-75
2022/10/31 08:08:34;;;;;;;;;;;12.30;99.90;;;;;;4974054;28;20236;-74
2022/10/31 08:11:01;;;;;;;;;;;12.30;99.90;;;;;;4977870;28;20016;-75
2022/10/31 08:13:27;;;;;;;;;;;12.20;99.90;;;;;;4962481;28;20343;-75
2022/10/31 08:16:03;;;;;;;;;;;12.20;99.90;;;;;;4979743;28;19913;-74
2022/10/31 08:18:29;;;;;;;;;;;12.30;99.90;;;;;;4956313;28;19918;-74
2022/10/31 08:20:55;;;;;;;;;;;12.40;99.90;;;;;;4976877;28;20351;-75
2022/10/31 08:23:20;;;;;;;;;;;12.40;99.90;;;;;;4979537;28;19914;-75
2022/10/31 08:25:49;;;;;;;;;;;12.40;99.90;;;;;;4980794;28;19968;-74
2022/10/31 08:28:14;;;;;;;;;;;12.40;99.90;;;;;;4977634;28;19973;-74
2022/10/31 08:30:47;;;;;;;;;;;12.50;99.90;;;;;;4978927;28;19910;-74
2022/10/31 08:33:16;;;;;;;;;;;12.60;99.90;;;;;;4974651;28;19909;-75
2022/10/31 08:35:42;;;;;;;;;;;12.60;99.90;;;;;;4961422;28;19921;-75
2022/10/31 08:38:11;;;;;;;;;;;12.50;99.90;;;;;;4982632;28;19917;-74
2022/10/31 08:40:48;;;;;;;;;;;12.40;99.90;;;;;;4978131;28;19921;-74
2022/10/31 08:43:20;;;;;;;;;;;12.50;99.90;;;;;;4980515;28;19997;-74
2022/10/31 08:45:49;;;;;;;;;;;12.60;99.90;;;;;;4962790;28;19914;-76
2022/10/31 08:48:21;;;;;;;;;;;12.60;99.90;;;;;;4979720;28;19910;-74
2022/10/31 08:50:46;;;;;;;;;;;12.40;99.90;;;;;;4973784;28;19910;-75
2022/10/31 08:53:18;;;;;;;;;;;12.40;99.90;;;;;;4978609;28;19925;-75
2022/10/31 08:55:44;;;;;;;;;;;12.40;99.90;;;;;;4979378;28;20052;-75
2022/10/31 08:58:12;;;;;;;;;;;12.30;99.90;;;;;;4980062;28;20384;-74
2022/10/31 09:00:39;;;;;;;;;;;12.40;99.90;;;;;;4978501;28;20518;-75
2022/10/31 09:03:06;;;;;;;;;;;12.60;99.90;;;;;;4978024;28;19917;-74
2022/10/31 09:05:34;;;;;;;;;;;12.80;99.90;;;;;;4977930;28;19909;-74
2022/10/31 09:08:08;;;;;;;;;;;12.90;99.90;;;;;;4979453;28;19916;-75
2022/10/31 09:10:35;;;;;;;;;;;13.00;99.90;;;;;;4974617;28;19925;-75
2022/10/31 09:13:09;;;;;;;;;;;13.10;99.90;;;;;;4977236;28;20378;-75
2022/10/31 09:15:36;;;;;;;;;;;13.20;99.90;;;;;;4963435;28;19909;-74
2022/10/31 09:18:02;;;;;;;;;;;13.10;99.90;;;;;;4978757;28;19921;-74
2022/10/31 09:20:30;;;;;;;;;;;13.00;99.90;;;;;;4979105;28;19914;-74
2022/10/31 09:23:00;;;;;;;;;;;12.80;99.90;;;;;;4977324;28;20561;-74
2022/10/31 09:25:27;;;;;;;;;;;12.80;99.90;;;;;;4983191;28;20002;-75
2022/10/31 09:27:59;;;;;;;;;;;12.70;99.90;;;;;;4974074;28;19910;-75
2022/10/31 09:30:28;;;;;;;;;;;12.50;99.90;;;;;;4976169;28;20430;-75
2022/10/31 09:32:57;;;;;;;;;;;12.50;99.90;;;;;;4976226;28;19909;-74
2022/10/31 09:35:27;;;;;;;;;;;12.50;99.90;;;;;;4977815;28;19910;-75
2022/10/31 09:38:09;;;;;;;;;;;12.60;99.90;;;;;;4974210;28;19910;-75
2022/10/31 09:40:45;;;;;;;;;;;12.60;99.90;;;;;;4960050;28;19925;-75
2022/10/31 09:43:34;;;;;;;;;;;12.70;99.90;;;;;;4977701;28;19921;-75
2022/10/31 09:46:19;;;;;;;;;;;12.90;99.90;;;;;;4965039;28;19914;-74
2022/10/31 09:49:09;;;;;;;;;;;12.90;99.90;;;;;;4978016;28;19914;-75
2022/10/31 09:51:43;;;;;;;;;;;13.00;99.90;;;;;;4972850;28;20347;-75
2022/10/31 09:54:29;;;;;;;;;;;13.00;99.90;;;;;;4976050;28;19925;-75
2022/10/31 09:56:56;;;;;;;;;;;13.10;99.90;;;;;;4978459;28;19917;-74
2022/10/31 09:59:30;;;;;;;;;;;13.10;99.90;;;;;;4978778;28;19910;-74
2022/10/31 10:02:00;;;;;;;;;;;13.20;99.90;;;;;;4977178;28;19914;-74
2022/10/31 10:04:48;;;;;;;;;;;13.30;99.90;;;;;;4978858;28;19940;-73
2022/10/31 10:07:35;;;;;;;;;;;13.30;99.90;;;;;;4978906;28;20640;-75
2022/10/31 10:10:12;;;;;;;;;;;13.30;99.90;;;;;;4918238;29;20081;-74
2022/10/31 10:12:49;;;;;;;;;;;13.30;99.90;;;;;;4966249;28;19921;-74
2022/10/31 10:15:25;;;;;;;;;;;13.20;99.90;;;;;;4960791;28;20012;-74
2022/10/31 10:18:13;;;;;;;;;;;12.90;99.90;;;;;;4978473;28;19945;-75
2022/10/31 10:20:59;;;;;;;;;;;12.80;99.90;;;;;;4976665;28;20320;-74
2022/10/31 10:23:28;;;;;;;;;;;12.80;99.90;;;;;;4976186;28;20095;-74
2022/10/31 10:26:09;;;;;;;;;;;12.70;99.90;;;;;;4977797;28;19910;-74
2022/10/31 10:28:38;;;;;;;;;;;12.70;99.90;;;;;;4972647;28;19910;-75
2022/10/31 10:31:12;;;;;;;;;;;12.50;99.90;;;;;;4976647;28;20343;-75
2022/10/31 10:33:57;;;;;;;;;;;12.50;99.90;;;;;;4977448;28;21010;-75
2022/10/31 10:36:40;;;;;;;;;;;12.50;99.90;;;;;;4969057;28;19916;-75
2022/10/31 10:39:12;;;;;;;;;;;12.70;99.90;;;;;;4976624;28;19991;-75
2022/10/31 10:47:40;;;;;;;;;;;12.60;99.90;;;;;;4977732;28;19972;-74
2022/10/31 10:50:26;;;;;;;;;;;12.40;99.90;;;;;;4977075;28;19956;-75
2022/10/31 10:53:00;;;;;;;;;;;12.50;99.90;;;;;;4972731;28;19913;-74
2022/10/31 10:55:31;;;;;;;;;;;12.70;99.90;;;;;;4977973;28;19910;-74
2022/10/31 10:58:08;;;;;;;;;;;12.70;99.90;;;;;;4966792;28;20346;-74
2022/10/31 11:00:39;;;;;;;;;;;12.60;99.90;;;;;;4975685;28;19937;-75
2022/10/31 11:03:05;;;;;;;;;;;12.40;99.90;;;;;;4978088;28;19918;-75
2022/10/31 11:05:40;;;;;;;;;;;12.50;99.90;;;;;;4973836;28;19937;-74
2022/10/31 11:08:31;;;;;;;;;;;12.60;99.90;;;;;;4967440;28;19917;-75
2022/10/31 11:11:02;;;;;;;;;;;12.50;99.90;;;;;;4973081;28;19996;-74
2022/10/31 11:13:36;;;;;;;;;;;12.70;99.90;;;;;;4976115;28;20009;-75
2022/10/31 11:16:10;;;;;;;;;;;12.80;99.90;;;;;;4976166;28;19910;-75
2022/10/31 11:18:41;;;;;;;;;;;12.80;99.90;;;;;;4962438;28;19909;-74
2022/10/31 11:21:20;;;;;;;;;;;12.60;99.90;;;;;;4970659;28;19922;-74
2022/10/31 11:23:46;;;;;;;;;;;12.60;99.90;;;;;;4976514;28;19914;-74
2022/10/31 11:26:21;;;;;;;;;;;12.70;99.90;;;;;;4977839;28;19924;-75
2022/10/31 11:28:56;;;;;;;;;;;12.80;99.90;;;;;;4971422;28;20013;-74
2022/10/31 11:31:22;;;;;;;;;;;12.80;99.90;;;;;;4974481;28;20457;-76
2022/10/31 11:34:00;;;;;;;;;;;12.70;99.90;;;;;;4973567;28;19954;-74
2022/10/31 11:36:42;;;;;;;;;;;12.70;99.90;;;;;;4975103;28;19917;-74
2022/10/31 11:39:29;;;;;;;;;;;12.80;99.90;;;;;;4973056;28;19925;-74
2022/10/31 11:41:59;;;;;;;;;;;12.80;99.90;;;;;;4975624;28;20390;-74
2022/10/31 11:44:30;;;;;;;;;;;12.90;99.90;;;;;;4977194;28;19921;-75
2022/10/31 11:47:00;;;;;;;;;;;12.90;99.90;;;;;;4971834;28;20263;-75
2022/10/31 11:49:45;;;;;;;;;;;13.00;99.90;;;;;;4975667;28;19910;-74
2022/10/31 11:52:27;;;;;;;;;;;13.00;99.90;;;;;;4959583;28;19917;-74
2022/10/31 11:55:13;;;;;;;;;;;12.90;99.90;;;;;;4957377;28;19917;-74
2022/10/31 11:57:50;;;;;;;;;;;12.80;99.90;;;;;;4973492;28;20021;-74
2022/10/31 12:00:24;;;;;;;;;;;12.70;99.90;;;;;;4977861;28;19917;-75
2022/10/31 12:03:03;;;;;;;;;;;12.80;99.90;;;;;;4977829;28;20004;-74
2022/10/31 12:05:38;;;;;;;;;;;12.80;99.90;;;;;;4975357;28;19910;-74
2022/10/31 12:08:11;;;;;;;;;;;12.80;99.90;;;;;;4977247;28;20312;-74
2022/10/31 12:10:54;;;;;;;;;;;12.80;99.90;;;;;;4976172;28;20092;-74
2022/10/31 12:13:21;;;;;;;;;;;12.80;99.90;;;;;;4984986;28;19909;-74
2022/10/31 12:16:01;;;;;;;;;;;12.70;99.90;;;;;;4980374;28;19937;-74
2022/10/31 12:18:38;;;;;;;;;;;12.90;99.90;;;;;;4978372;28;20584;-74
2022/10/31 12:21:15;;;;;;;;;;;12.90;99.90;;;;;;4978863;28;19947;-75
2022/10/31 12:23:40;;;;;;;;;;;12.90;99.90;;;;;;4983898;28;19910;-75
2022/10/31 12:26:17;;;;;;;;;;;13.00;99.90;;;;;;4981215;28;19917;-74
2022/10/31 12:28:52;;;;;;;;;;;13.10;99.90;;;;;;4978836;28;20048;-75
2022/10/31 12:31:32;;;;;;;;;;;13.20;99.90;;;;;;4968178;28;19918;-75
2022/10/31 12:33:58;;;;;;;;;;;13.30;99.90;;;;;;4978196;28;20572;-74
2022/10/31 12:36:47;;;;;;;;;;;13.30;99.90;;;;;;4984282;28;19956;-75
2022/10/31 12:39:20;;;;;;;;;;;13.30;99.90;;;;;;4982530;28;20536;-74
2022/10/31 12:42:04;;;;;;;;;;;13.30;99.90;;;;;;4981073;28;19918;-75
2022/10/31 12:44:52;;;;;;;;;;;13.20;99.90;;;;;;4982745;28;19917;-74
2022/10/31 12:47:29;;;;;;;;;;;13.20;99.90;;;;;;4986839;28;20000;-74
2022/10/31 12:50:17;;;;;;;;;;;13.20;99.90;;;;;;4981873;28;19916;-75
2022/10/31 12:52:47;;;;;;;;;;;13.10;99.90;;;;;;4983933;28;19929;-74
2022/10/31 12:58:12;;;;;;;;;;;13.20;99.90;;;;;;4983127;28;19913;-74
2022/10/31 13:00:43;;;;;;;;;;;13.10;99.90;;;;;;4980900;28;20088;-75
2022/10/31 13:03:17;;;;;;;;;;;13.10;99.90;;;;;;4983182;28;19940;-74
2022/10/31 13:05:45;;;;;;;;;;;13.10;99.90;;;;;;4981789;28;19965;-75
2022/10/31 13:08:18;;;;;;;;;;;13.00;99.90;;;;;;4979023;28;19917;-74
2022/10/31 13:11:13;;;;;;;;;;;13.00;99.90;;;;;;4975258;28;20375;-74
2022/10/31 13:13:42;;;;;;;;;;;13.00;99.90;;;;;;4980778;28;19918;-75
2022/10/31 13:16:41;;;;;;;;;;;13.00;99.90;;;;;;4982629;28;19917;-74
2022/10/31 13:19:12;;;;;;;;;;;13.00;99.90;;;;;;4939681;28;20030;-75
2022/10/31 13:21:42;;;;;;;;;;;12.80;99.90;;;;;;4981384;28;19928;-74
2022/10/31 13:24:23;;;;;;;;;;;12.70;99.90;;;;;;4982329;28;19920;-75
2022/10/31 13:26:53;;;;;;;;;;;12.70;99.90;;;;;;4978853;28;19940;-74
2022/10/31 13:29:23;;;;;;;;;;;12.80;99.90;;;;;;4981824;28;20575;-75
2022/10/31 13:31:57;;;;;;;;;;;12.80;99.90;;;;;;4985449;28;19949;-74
2022/10/31 13:34:27;;;;;;;;;;;12.90;99.90;;;;;;4981207;28;19961;-75
2022/10/31 13:36:55;;;;;;;;;;;13.00;99.90;;;;;;4979103;28;20365;-74
2022/10/31 13:39:24;;;;;;;;;;;13.00;99.90;;;;;;4986894;28;19913;-74
2022/10/31 13:41:52;;;;;;;;;;;13.00;99.90;;;;;;4982382;28;19918;-74
2022/10/31 13:44:29;;;;;;;;;;;13.00;99.90;;;;;;4970643;28;19918;-75
2022/10/31 13:47:03;;;;;;;;;;;13.00;99.90;;;;;;4971945;28;20439;-74
2022/10/31 13:49:33;;;;;;;;;;;12.90;99.90;;;;;;4982730;28;19914;-74
2022/10/31 13:52:13;;;;;;;;;;;13.00;99.90;;;;;;4977061;28;19914;-74
2022/10/31 13:54:47;;;;;;;;;;;13.00;99.90;;;;;;4982260;28;19994;-75
2022/10/31 13:57:28;;;;;;;;;;;12.90;99.90;;;;;;4986864;28;19914;-75
2022/10/31 14:00:14;;;;;;;;;;;12.90;99.90;;;;;;4979120;28;19917;-74
2022/10/31 14:02:46;;;;;;;;;;;12.70;99.90;;;;;;4981378;28;19956;-75
2022/10/31 14:05:25;;;;;;;;;;;12.70;99.90;;;;;;4979915;28;20116;-74
2022/10/31 14:07:52;;;;;;;;;;;12.60;99.90;;;;;;4984737;28;19914;-74
2022/10/31 14:10:40;;;;;;;;;;;12.60;99.90;;;;;;4962692;28;19918;-75
2022/10/31 14:13:07;;;;;;;;;;;12.60;99.90;;;;;;4986327;28;19965;-75
2022/10/31 14:15:32;;;;;;;;;;;12.60;99.90;;;;;;4986233;28;19967;-74
2022/10/31 14:18:05;;;;;;;;;;;12.60;99.90;;;;;;4985584;28;19918;-74
2022/10/31 14:20:31;;;;;;;;;;;12.60;99.90;;;;;;4984809;28;19913;-74
2022/10/31 14:22:56;;;;;;;;;;;12.60;99.90;;;;;;4985917;28;19921;-74
2022/10/31 14:25:35;;;;;;;;;;;12.60;99.90;;;;;;4982372;28;19953;-74
2022/10/31 14:28:02;;;;;;;;;;;12.50;99.90;;;;;;4985242;28;19992;-74
2022/10/31 14:30:37;;;;;;;;;;;12.60;99.90;;;;;;4981559;28;19920;-74
2022/10/31 14:33:13;;;;;;;;;;;12.50;99.90;;;;;;4981604;28;19910;-74
2022/10/31 14:35:58;;;;;;;;;;;12.50;99.90;;;;;;4960371;28;19914;-75
2022/10/31 14:38:34;;;;;;;;;;;12.50;99.90;;;;;;4979705;28;20633;-74
2022/10/31 14:41:20;;;;;;;;;;;12.60;99.90;;;;;;4975124;28;19929;-75
2022/10/31 14:43:47;;;;;;;;;;;12.60;99.90;;;;;;4982539;28;19914;-74
2022/10/31 14:49:03;;;;;;;;;;;12.60;99.90;;;;;;4977489;28;19914;-75
2022/10/31 14:51:47;;;;;;;;;;;12.60;99.90;;;;;;4980604;28;20295;-75
2022/10/31 14:54:39;;;;;;;;;;;12.60;99.90;;;;;;4977019;28;19957;-74